LAN285 SCEL-SCTE
Flight info
| Callsign | LAN285 |
|---|---|
| Flight time | 1h 20m |
| Altitude | 37000 |
| Route | ANGOD UQ803 ERUKA DCT SARTO SARTO2A |
| Aircraft | A20N/M-SDE2E3FGHIRWXY/LB1 |
Departure
| Time | 2026-04-21 15:19 |
|---|---|
| Airport | Comodoro Arturo Merino Benítez International Airport (SCEL) |
Arrival
| Time | 2026-04-21 16:40 |
|---|---|
| Airport | El Tepual International Airport (SCTE) |
| Time | Latitude | Longitude | Altitude | Speed | Heading |
|---|---|---|---|---|---|
| 2026-04-21 14:45 | -33.39593 | -70.79218 | 1564 ft | 0 kts | 176° |
| 2026-04-21 15:00 | -33.39575 | -70.79219 | 1564 ft | 4 kts | 177° |
| 2026-04-21 15:00 | -33.39549 | -70.79221 | 1564 ft | 4 kts | 177° |
| 2026-04-21 15:00 | -33.39525 | -70.79222 | 1564 ft | 4 kts | 190° |
| 2026-04-21 15:01 | -33.39505 | -70.79208 | 1564 ft | 4 kts | 248° |
| 2026-04-21 15:01 | -33.39500 | -70.79177 | 1564 ft | 4 kts | 267° |
| 2026-04-21 15:01 | -33.39499 | -70.79165 | 1564 ft | 0 kts | 267° |
| 2026-04-21 15:03 | -33.39499 | -70.79167 | 1564 ft | 1 kts | 268° |
| 2026-04-21 15:04 | -33.39499 | -70.79181 | 1565 ft | 3 kts | 270° |
| 2026-04-21 15:04 | -33.39500 | -70.79207 | 1564 ft | 4 kts | 266° |
| 2026-04-21 15:04 | -33.39503 | -70.79241 | 1550 ft | 5 kts | 265° |
| 2026-04-21 15:04 | -33.39505 | -70.79282 | 1564 ft | 5 kts | 268° |
| 2026-04-21 15:05 | -33.39507 | -70.79327 | 1564 ft | 6 kts | 266° |
| 2026-04-21 15:05 | -33.39510 | -70.79431 | 1564 ft | 7 kts | 268° |
| 2026-04-21 15:05 | -33.39512 | -70.79490 | 1564 ft | 7 kts | 266° |
| 2026-04-21 15:06 | -33.39516 | -70.79554 | 1564 ft | 8 kts | 265° |
| 2026-04-21 15:06 | -33.39522 | -70.79621 | 1564 ft | 8 kts | 263° |
| 2026-04-21 15:06 | -33.39524 | -70.79690 | 1564 ft | 8 kts | 268° |
| 2026-04-21 15:06 | -33.39526 | -70.79762 | 1564 ft | 9 kts | 266° |
| 2026-04-21 15:07 | -33.39528 | -70.79835 | 1564 ft | 9 kts | 269° |
| 2026-04-21 15:07 | -33.39530 | -70.79911 | 1565 ft | 9 kts | 268° |
| 2026-04-21 15:07 | -33.39529 | -70.79982 | 1565 ft | 8 kts | 277° |
| 2026-04-21 15:07 | -33.39541 | -70.80038 | 1565 ft | 7 kts | 208° |
| 2026-04-21 15:08 | -33.39589 | -70.80039 | 1565 ft | 7 kts | 174° |
| 2026-04-21 15:08 | -33.39639 | -70.80038 | 1565 ft | 7 kts | 179° |
| 2026-04-21 15:08 | -33.39692 | -70.80037 | 1566 ft | 8 kts | 178° |
| 2026-04-21 15:08 | -33.39746 | -70.80028 | 1566 ft | 8 kts | 178° |
| 2026-04-21 15:09 | -33.39803 | -70.80027 | 1566 ft | 8 kts | 179° |
| 2026-04-21 15:09 | -33.39863 | -70.80022 | 1566 ft | 9 kts | 176° |
| 2026-04-21 15:09 | -33.39927 | -70.80020 | 1566 ft | 9 kts | 178° |
| 2026-04-21 15:09 | -33.39993 | -70.80016 | 1566 ft | 10 kts | 176° |
| 2026-04-21 15:10 | -33.40062 | -70.80010 | 1566 ft | 10 kts | 176° |
| 2026-04-21 15:10 | -33.40133 | -70.80004 | 1566 ft | 10 kts | 176° |
| 2026-04-21 15:10 | -33.40207 | -70.79996 | 1566 ft | 11 kts | 175° |
| 2026-04-21 15:10 | -33.40284 | -70.79989 | 1566 ft | 11 kts | 175° |
| 2026-04-21 15:11 | -33.40361 | -70.79981 | 1566 ft | 12 kts | 176° |
| 2026-04-21 15:11 | -33.40443 | -70.79976 | 1566 ft | 12 kts | 179° |
| 2026-04-21 15:11 | -33.40526 | -70.79973 | 1566 ft | 12 kts | 177° |
| 2026-04-21 15:11 | -33.40589 | -70.80004 | 1567 ft | 8 kts | 247° |
| 2026-04-21 15:12 | -33.40593 | -70.80028 | 1567 ft | 0 kts | 266° |
| 2026-04-21 15:18 | -33.40593 | -70.80033 | 1568 ft | 2 kts | 266° |
| 2026-04-21 15:18 | -33.40596 | -70.80097 | 1571 ft | 13 kts | 268° |
| 2026-04-21 15:18 | -33.40568 | -70.80195 | 1574 ft | 11 kts | 348° |
| 2026-04-21 15:18 | -33.40521 | -70.80192 | 1574 ft | 25 kts | 358° |
| 2026-04-21 15:19 | -33.40102 | -70.80218 | 1574 ft | 93 kts | 356° |
| 2026-04-21 15:19 | -33.39267 | -70.80265 | 1572 ft | 144 kts | 358° |
| 2026-04-21 15:19 | -33.38225 | -70.80326 | 2039 ft | 139 kts | 354° |
| 2026-04-21 15:19 | -33.37200 | -70.80396 | 2276 ft | 163 kts | 353° |
| 2026-04-21 15:20 | -33.36049 | -70.80483 | 2787 ft | 161 kts | 355° |
| 2026-04-21 15:20 | -33.34995 | -70.80553 | 3544 ft | 152 kts | 357° |
| 2026-04-21 15:20 | -33.33883 | -70.80595 | 3841 ft | 169 kts | 358° |
| 2026-04-21 15:20 | -33.32655 | -70.80635 | 4212 ft | 187 kts | 358° |
| 2026-04-21 15:21 | -33.31336 | -70.80689 | 4612 ft | 206 kts | 357° |
| 2026-04-21 15:21 | -33.29827 | -70.80777 | 5130 ft | 226 kts | 353° |
| 2026-04-21 15:21 | -33.28316 | -70.81486 | 5617 ft | 246 kts | 322° |
| 2026-04-21 15:21 | -33.27227 | -70.83157 | 6253 ft | 264 kts | 293° |
| 2026-04-21 15:22 | -33.26966 | -70.85342 | 7191 ft | 273 kts | 266° |
| 2026-04-21 15:22 | -33.27595 | -70.87516 | 8038 ft | 286 kts | 240° |
| 2026-04-21 15:22 | -33.29041 | -70.89195 | 9031 ft | 298 kts | 214° |
| 2026-04-21 15:22 | -33.31036 | -70.90028 | 9925 ft | 312 kts | 188° |
| 2026-04-21 15:23 | -33.33209 | -70.89845 | 10514 ft | 331 kts | 167° |
| 2026-04-21 15:23 | -33.35522 | -70.89062 | 10840 ft | 355 kts | 166° |
| 2026-04-21 15:23 | -33.37988 | -70.88465 | 11345 ft | 367 kts | 174° |
| 2026-04-21 15:23 | -33.40546 | -70.88230 | 12203 ft | 369 kts | 180° |
| 2026-04-21 15:24 | -33.43126 | -70.88237 | 13085 ft | 371 kts | 184° |
| 2026-04-21 15:24 | -33.45722 | -70.88375 | 13933 ft | 374 kts | 185° |
| 2026-04-21 15:24 | -33.48332 | -70.88564 | 14716 ft | 376 kts | 186° |
| 2026-04-21 15:24 | -33.50954 | -70.88767 | 15479 ft | 379 kts | 186° |
| 2026-04-21 15:25 | -33.53601 | -70.88968 | 16240 ft | 381 kts | 187° |
| 2026-04-21 15:25 | -33.56262 | -70.89167 | 16977 ft | 384 kts | 187° |
| 2026-04-21 15:25 | -33.58900 | -70.89359 | 17721 ft | 387 kts | 187° |
| 2026-04-21 15:25 | -33.61639 | -70.89556 | 18462 ft | 390 kts | 187° |
| 2026-04-21 15:26 | -33.64331 | -70.89749 | 19095 ft | 393 kts | 187° |
| 2026-04-21 15:26 | -33.67076 | -70.89947 | 19716 ft | 396 kts | 187° |
| 2026-04-21 15:26 | -33.69840 | -70.90146 | 20335 ft | 399 kts | 187° |
| 2026-04-21 15:26 | -33.72628 | -70.90347 | 20947 ft | 402 kts | 187° |
| 2026-04-21 15:27 | -33.75442 | -70.90551 | 21541 ft | 406 kts | 187° |
| 2026-04-21 15:27 | -33.78279 | -70.90757 | 22140 ft | 409 kts | 187° |
| 2026-04-21 15:27 | -33.81108 | -70.90962 | 22709 ft | 413 kts | 187° |
| 2026-04-21 15:27 | -33.83992 | -70.91171 | 23299 ft | 416 kts | 187° |
| 2026-04-21 15:28 | -33.86895 | -70.91379 | 23851 ft | 420 kts | 187° |
| 2026-04-21 15:28 | -33.89830 | -70.91591 | 24329 ft | 423 kts | 187° |
| 2026-04-21 15:28 | -33.92778 | -70.91805 | 24813 ft | 426 kts | 187° |
| 2026-04-21 15:28 | -33.95756 | -70.92021 | 25300 ft | 428 kts | 187° |
| 2026-04-21 15:29 | -33.98712 | -70.92237 | 25766 ft | 431 kts | 187° |
| 2026-04-21 15:29 | -34.01718 | -70.92574 | 26156 ft | 434 kts | 192° |
| 2026-04-21 15:29 | -34.04682 | -70.93318 | 26561 ft | 436 kts | 196° |
| 2026-04-21 15:29 | -34.07643 | -70.94138 | 27016 ft | 438 kts | 195° |
| 2026-04-21 15:30 | -34.10602 | -70.94941 | 27437 ft | 442 kts | 195° |
| 2026-04-21 15:30 | -34.13610 | -70.95754 | 27845 ft | 445 kts | 195° |
| 2026-04-21 15:30 | -34.16655 | -70.96580 | 28239 ft | 448 kts | 195° |
| 2026-04-21 15:30 | -34.19712 | -70.97411 | 28615 ft | 451 kts | 195° |
| 2026-04-21 15:31 | -34.22789 | -70.98249 | 28989 ft | 453 kts | 194° |
| 2026-04-21 15:31 | -34.25885 | -70.99095 | 29329 ft | 457 kts | 194° |
| 2026-04-21 15:31 | -34.28961 | -70.99936 | 29612 ft | 461 kts | 194° |
| 2026-04-21 15:31 | -34.32110 | -71.00797 | 29979 ft | 463 kts | 194° |
| 2026-04-21 15:32 | -34.35261 | -71.01659 | 30308 ft | 466 kts | 194° |
| 2026-04-21 15:32 | -34.38442 | -71.02529 | 30621 ft | 468 kts | 194° |
| 2026-04-21 15:32 | -34.41624 | -71.03399 | 30957 ft | 470 kts | 194° |
| 2026-04-21 15:32 | -34.44810 | -71.04272 | 31280 ft | 471 kts | 194° |
| 2026-04-21 15:33 | -34.48007 | -71.05148 | 31662 ft | 471 kts | 194° |
| 2026-04-21 15:33 | -34.51222 | -71.06031 | 32093 ft | 470 kts | 194° |
| 2026-04-21 15:33 | -34.54422 | -71.06909 | 32432 ft | 471 kts | 194° |
| 2026-04-21 15:33 | -34.57573 | -71.07775 | 32819 ft | 471 kts | 194° |
| 2026-04-21 15:34 | -34.60775 | -71.08655 | 33229 ft | 469 kts | 194° |
| 2026-04-21 15:34 | -34.63966 | -71.09534 | 33618 ft | 468 kts | 195° |
| 2026-04-21 15:34 | -34.67144 | -71.10409 | 34001 ft | 468 kts | 195° |
| 2026-04-21 15:34 | -34.70288 | -71.11275 | 34339 ft | 467 kts | 195° |
| 2026-04-21 15:35 | -34.73454 | -71.12146 | 34656 ft | 466 kts | 195° |
| 2026-04-21 15:35 | -34.76637 | -71.12953 | 34954 ft | 466 kts | 193° |
| 2026-04-21 15:35 | -34.79823 | -71.13712 | 35115 ft | 468 kts | 193° |
| 2026-04-21 15:35 | -34.82985 | -71.14456 | 35397 ft | 468 kts | 194° |
| 2026-04-21 15:36 | -34.86182 | -71.15215 | 35696 ft | 466 kts | 194° |
| 2026-04-21 15:36 | -34.89367 | -71.15979 | 35985 ft | 465 kts | 195° |
| 2026-04-21 15:36 | -34.92552 | -71.16749 | 36259 ft | 464 kts | 195° |
| 2026-04-21 15:36 | -34.95717 | -71.17517 | 36524 ft | 464 kts | 195° |
| 2026-04-21 15:37 | -34.98879 | -71.18286 | 36782 ft | 463 kts | 196° |
| 2026-04-21 15:37 | -35.02000 | -71.19046 | 37029 ft | 462 kts | 196° |
| 2026-04-21 15:37 | -35.05157 | -71.19816 | 37179 ft | 462 kts | 196° |
| 2026-04-21 15:37 | -35.08298 | -71.20583 | 37187 ft | 460 kts | 196° |
| 2026-04-21 15:38 | -35.14590 | -71.22123 | 37187 ft | 460 kts | 196° |
| 2026-04-21 15:38 | -35.20846 | -71.23658 | 37190 ft | 460 kts | 196° |
| 2026-04-21 15:39 | -35.27122 | -71.25198 | 37202 ft | 460 kts | 196° |
| 2026-04-21 15:39 | -35.33408 | -71.26743 | 37190 ft | 461 kts | 196° |
| 2026-04-21 15:40 | -35.39713 | -71.28296 | 37186 ft | 461 kts | 196° |
| 2026-04-21 15:40 | -35.46013 | -71.29850 | 37202 ft | 462 kts | 196° |
| 2026-04-21 15:41 | -35.52287 | -71.31401 | 37222 ft | 462 kts | 196° |
| 2026-04-21 15:41 | -35.58552 | -71.32953 | 37191 ft | 460 kts | 196° |
| 2026-04-21 15:42 | -35.64834 | -71.34514 | 37196 ft | 460 kts | 196° |
| 2026-04-21 15:42 | -35.71129 | -71.36079 | 37192 ft | 460 kts | 196° |
| 2026-04-21 15:43 | -35.77377 | -71.37636 | 37197 ft | 460 kts | 196° |
| 2026-04-21 15:43 | -35.83639 | -71.39198 | 37181 ft | 459 kts | 196° |
| 2026-04-21 15:44 | -35.89915 | -71.40766 | 37168 ft | 458 kts | 196° |
| 2026-04-21 15:44 | -35.96131 | -71.42321 | 37157 ft | 457 kts | 196° |
| 2026-04-21 15:45 | -36.01338 | -71.43626 | 37177 ft | 457 kts | 196° |
| 2026-04-21 15:45 | -36.07588 | -71.45195 | 37169 ft | 457 kts | 196° |
| 2026-04-21 15:46 | -36.13826 | -71.46763 | 37168 ft | 457 kts | 196° |
| 2026-04-21 15:46 | -36.20061 | -71.48332 | 37162 ft | 457 kts | 196° |
| 2026-04-21 15:47 | -36.26261 | -71.49896 | 37176 ft | 457 kts | 196° |
| 2026-04-21 15:47 | -36.32502 | -71.51472 | 37168 ft | 457 kts | 196° |
| 2026-04-21 15:48 | -36.38749 | -71.53053 | 37158 ft | 458 kts | 196° |
| 2026-04-21 15:48 | -36.44995 | -71.54636 | 37160 ft | 458 kts | 196° |
| 2026-04-21 15:49 | -36.51233 | -71.56219 | 37184 ft | 458 kts | 195° |
| 2026-04-21 15:49 | -36.57486 | -71.57809 | 37175 ft | 459 kts | 195° |
| 2026-04-21 15:50 | -36.63736 | -71.59401 | 37172 ft | 459 kts | 196° |
| 2026-04-21 15:50 | -36.69999 | -71.60999 | 37174 ft | 459 kts | 195° |
| 2026-04-21 15:51 | -36.76229 | -71.62590 | 37166 ft | 459 kts | 196° |
| 2026-04-21 15:51 | -36.82510 | -71.64197 | 37166 ft | 459 kts | 196° |
| 2026-04-21 15:52 | -36.88748 | -71.65796 | 37170 ft | 459 kts | 196° |
| 2026-04-21 15:52 | -36.95014 | -71.67405 | 37167 ft | 459 kts | 196° |
| 2026-04-21 15:53 | -37.01261 | -71.69012 | 37166 ft | 459 kts | 196° |
| 2026-04-21 15:53 | -37.07513 | -71.70622 | 37168 ft | 458 kts | 196° |
| 2026-04-21 15:54 | -37.13734 | -71.72228 | 37171 ft | 458 kts | 196° |
| 2026-04-21 15:54 | -37.19986 | -71.73844 | 37170 ft | 458 kts | 196° |
| 2026-04-21 15:55 | -37.26234 | -71.75463 | 37173 ft | 458 kts | 196° |
| 2026-04-21 15:55 | -37.32477 | -71.77082 | 37171 ft | 458 kts | 196° |
| 2026-04-21 15:56 | -37.38735 | -71.78707 | 37170 ft | 457 kts | 196° |
| 2026-04-21 15:56 | -37.44926 | -71.80318 | 37168 ft | 457 kts | 196° |
| 2026-04-21 15:57 | -37.51166 | -71.81945 | 37166 ft | 457 kts | 196° |
| 2026-04-21 15:57 | -37.57371 | -71.83565 | 37166 ft | 457 kts | 196° |
| 2026-04-21 15:58 | -37.63616 | -71.85199 | 37179 ft | 457 kts | 196° |
| 2026-04-21 15:58 | -37.69846 | -71.86831 | 37178 ft | 457 kts | 196° |
| 2026-04-21 15:59 | -37.76065 | -71.88580 | 37181 ft | 456 kts | 198° |
| 2026-04-21 15:59 | -37.82194 | -71.90546 | 37182 ft | 456 kts | 199° |
| 2026-04-21 16:00 | -37.88367 | -71.92502 | 37176 ft | 457 kts | 198° |
| 2026-04-21 16:00 | -37.94523 | -71.94430 | 37195 ft | 458 kts | 198° |
| 2026-04-21 16:01 | -38.00717 | -71.96368 | 37181 ft | 458 kts | 198° |
| 2026-04-21 16:01 | -38.06914 | -71.98310 | 37188 ft | 458 kts | 198° |
| 2026-04-21 16:02 | -38.13120 | -72.00259 | 37188 ft | 459 kts | 198° |
| 2026-04-21 16:02 | -38.19299 | -72.02203 | 37192 ft | 459 kts | 199° |
| 2026-04-21 16:03 | -38.25484 | -72.04152 | 37190 ft | 459 kts | 199° |
| 2026-04-21 16:03 | -38.31695 | -72.06112 | 37190 ft | 459 kts | 199° |
| 2026-04-21 16:04 | -38.37880 | -72.08069 | 37189 ft | 459 kts | 199° |
| 2026-04-21 16:04 | -38.44058 | -72.10026 | 37188 ft | 459 kts | 199° |
| 2026-04-21 16:05 | -38.50266 | -72.11996 | 37203 ft | 458 kts | 199° |
| 2026-04-21 16:05 | -38.56432 | -72.13959 | 37201 ft | 458 kts | 199° |
| 2026-04-21 16:06 | -38.62630 | -72.15938 | 37200 ft | 458 kts | 199° |
| 2026-04-21 16:06 | -38.68796 | -72.17909 | 37197 ft | 458 kts | 199° |
| 2026-04-21 16:07 | -38.74967 | -72.19886 | 37200 ft | 458 kts | 199° |
| 2026-04-21 16:07 | -38.81159 | -72.21873 | 37185 ft | 457 kts | 199° |
| 2026-04-21 16:08 | -38.90426 | -72.24853 | 37205 ft | 458 kts | 199° |
| 2026-04-21 16:09 | -38.96596 | -72.26838 | 37202 ft | 458 kts | 199° |
| 2026-04-21 16:09 | -39.02774 | -72.28828 | 37200 ft | 458 kts | 199° |
| 2026-04-21 16:10 | -39.08975 | -72.30830 | 37201 ft | 458 kts | 199° |
| 2026-04-21 16:10 | -39.15180 | -72.32836 | 37203 ft | 459 kts | 199° |
| 2026-04-21 16:11 | -39.21340 | -72.34833 | 37205 ft | 459 kts | 199° |
| 2026-04-21 16:11 | -39.27541 | -72.36845 | 37205 ft | 459 kts | 199° |
| 2026-04-21 16:12 | -39.32704 | -72.38524 | 37206 ft | 459 kts | 199° |
| 2026-04-21 16:12 | -39.39952 | -72.40885 | 37211 ft | 460 kts | 200° |
| 2026-04-21 16:13 | -39.46132 | -72.42902 | 37213 ft | 460 kts | 200° |
| 2026-04-21 16:13 | -39.52357 | -72.44937 | 37212 ft | 460 kts | 200° |
| 2026-04-21 16:14 | -39.58585 | -72.46978 | 37227 ft | 460 kts | 200° |
| 2026-04-21 16:14 | -39.64759 | -72.49004 | 37216 ft | 460 kts | 200° |
| 2026-04-21 16:15 | -39.70993 | -72.51054 | 37214 ft | 460 kts | 200° |
| 2026-04-21 16:15 | -39.77204 | -72.53096 | 36946 ft | 460 kts | 200° |
| 2026-04-21 16:15 | -39.80305 | -72.54096 | 36694 ft | 460 kts | 199° |
| 2026-04-21 16:16 | -39.83385 | -72.55084 | 36431 ft | 461 kts | 199° |
| 2026-04-21 16:16 | -39.86510 | -72.56088 | 36173 ft | 462 kts | 199° |
| 2026-04-21 16:16 | -39.89637 | -72.57095 | 35922 ft | 463 kts | 199° |
| 2026-04-21 16:16 | -39.92774 | -72.58108 | 35670 ft | 463 kts | 199° |
| 2026-04-21 16:17 | -39.95907 | -72.59121 | 35413 ft | 464 kts | 199° |
| 2026-04-21 16:17 | -39.99035 | -72.60133 | 35098 ft | 465 kts | 199° |
| 2026-04-21 16:17 | -40.02204 | -72.61161 | 34385 ft | 471 kts | 199° |
| 2026-04-21 16:17 | -40.05413 | -72.62205 | 33440 ft | 477 kts | 199° |
| 2026-04-21 16:18 | -40.08585 | -72.63234 | 32728 ft | 475 kts | 199° |
| 2026-04-21 16:18 | -40.11799 | -72.64278 | 31927 ft | 476 kts | 199° |
| 2026-04-21 16:18 | -40.15020 | -72.65325 | 31199 ft | 475 kts | 199° |
| 2026-04-21 16:18 | -40.18196 | -72.66357 | 30705 ft | 469 kts | 199° |
| 2026-04-21 16:19 | -40.21364 | -72.67388 | 30093 ft | 465 kts | 199° |
| 2026-04-21 16:19 | -40.24493 | -72.68409 | 29502 ft | 460 kts | 199° |
| 2026-04-21 16:19 | -40.27545 | -72.69405 | 28943 ft | 455 kts | 199° |
| 2026-04-21 16:19 | -40.30602 | -72.70405 | 28376 ft | 450 kts | 199° |
| 2026-04-21 16:20 | -40.33627 | -72.71395 | 27814 ft | 445 kts | 199° |
| 2026-04-21 16:20 | -40.36626 | -72.72379 | 27262 ft | 441 kts | 199° |
| 2026-04-21 16:20 | -40.39600 | -72.73355 | 26712 ft | 437 kts | 199° |
| 2026-04-21 16:20 | -40.42498 | -72.74307 | 26154 ft | 433 kts | 198° |
| 2026-04-21 16:21 | -40.45432 | -72.75272 | 25619 ft | 430 kts | 198° |
| 2026-04-21 16:21 | -40.48326 | -72.76224 | 25049 ft | 428 kts | 199° |
| 2026-04-21 16:21 | -40.51210 | -72.77174 | 24502 ft | 425 kts | 198° |
| 2026-04-21 16:21 | -40.54084 | -72.78121 | 23923 ft | 424 kts | 198° |
| 2026-04-21 16:22 | -40.56932 | -72.79060 | 23370 ft | 421 kts | 198° |
| 2026-04-21 16:22 | -40.59730 | -72.79983 | 22827 ft | 416 kts | 198° |
| 2026-04-21 16:22 | -40.62528 | -72.80906 | 22273 ft | 412 kts | 198° |
| 2026-04-21 16:22 | -40.65303 | -72.81823 | 21734 ft | 408 kts | 198° |
| 2026-04-21 16:23 | -40.68048 | -72.82731 | 21195 ft | 404 kts | 198° |
| 2026-04-21 16:23 | -40.70738 | -72.83622 | 20661 ft | 401 kts | 198° |
| 2026-04-21 16:23 | -40.73434 | -72.84515 | 20122 ft | 398 kts | 198° |
| 2026-04-21 16:23 | -40.76118 | -72.85406 | 19571 ft | 395 kts | 198° |
| 2026-04-21 16:24 | -40.78789 | -72.86293 | 19027 ft | 392 kts | 198° |
| 2026-04-21 16:24 | -40.81429 | -72.87171 | 18439 ft | 391 kts | 197° |
| 2026-04-21 16:24 | -40.84033 | -72.88036 | 17928 ft | 386 kts | 197° |
| 2026-04-21 16:24 | -40.86615 | -72.88895 | 17396 ft | 382 kts | 197° |
| 2026-04-21 16:25 | -40.89214 | -72.89761 | 16870 ft | 378 kts | 197° |
| 2026-04-21 16:25 | -40.91768 | -72.90613 | 16348 ft | 374 kts | 198° |
| 2026-04-21 16:25 | -40.94225 | -72.91413 | 15835 ft | 372 kts | 195° |
| 2026-04-21 16:25 | -40.96800 | -72.91869 | 15313 ft | 371 kts | 188° |
| 2026-04-21 16:26 | -40.99362 | -72.92170 | 14811 ft | 368 kts | 188° |
| 2026-04-21 16:26 | -41.01918 | -72.92483 | 14259 ft | 367 kts | 188° |
| 2026-04-21 16:26 | -41.04445 | -72.92797 | 13762 ft | 364 kts | 188° |
| 2026-04-21 16:26 | -41.06964 | -72.93110 | 13245 ft | 360 kts | 188° |
| 2026-04-21 16:27 | -41.09445 | -72.93419 | 12749 ft | 356 kts | 188° |
| 2026-04-21 16:27 | -41.11879 | -72.93722 | 12258 ft | 353 kts | 188° |
| 2026-04-21 16:27 | -41.14316 | -72.94025 | 11769 ft | 349 kts | 188° |
| 2026-04-21 16:27 | -41.16730 | -72.94325 | 11278 ft | 347 kts | 188° |
| 2026-04-21 16:28 | -41.19138 | -72.94625 | 10791 ft | 344 kts | 188° |
| 2026-04-21 16:28 | -41.21509 | -72.94920 | 10501 ft | 335 kts | 188° |
| 2026-04-21 16:28 | -41.23761 | -72.95196 | 10362 ft | 322 kts | 188° |
| 2026-04-21 16:28 | -41.25946 | -72.95464 | 10252 ft | 309 kts | 188° |
| 2026-04-21 16:29 | -41.27389 | -72.95554 | 10079 ft | 305 kts | 185° |
| 2026-04-21 16:29 | -41.29508 | -72.95621 | 9688 ft | 303 kts | 184° |
| 2026-04-21 16:29 | -41.31583 | -72.95687 | 9287 ft | 300 kts | 184° |
| 2026-04-21 16:29 | -41.33670 | -72.95755 | 8897 ft | 298 kts | 185° |
| 2026-04-21 16:30 | -41.35740 | -72.95822 | 8509 ft | 296 kts | 185° |
| 2026-04-21 16:30 | -41.37791 | -72.95891 | 8135 ft | 293 kts | 184° |
| 2026-04-21 16:30 | -41.39828 | -72.95959 | 7762 ft | 291 kts | 184° |
| 2026-04-21 16:30 | -41.41829 | -72.96026 | 7398 ft | 289 kts | 184° |
| 2026-04-21 16:31 | -41.43823 | -72.96093 | 7103 ft | 284 kts | 184° |
| 2026-04-21 16:31 | -41.45770 | -72.96156 | 6985 ft | 272 kts | 185° |
| 2026-04-21 16:31 | -41.47627 | -72.96215 | 6874 ft | 261 kts | 185° |
| 2026-04-21 16:31 | -41.49398 | -72.96273 | 6766 ft | 250 kts | 185° |
| 2026-04-21 16:32 | -41.51103 | -72.96329 | 6475 ft | 247 kts | 185° |
| 2026-04-21 16:32 | -41.52832 | -72.96388 | 6138 ft | 247 kts | 185° |
| 2026-04-21 16:32 | -41.54559 | -72.96450 | 5770 ft | 250 kts | 185° |
| 2026-04-21 16:32 | -41.56304 | -72.96512 | 5323 ft | 255 kts | 184° |
| 2026-04-21 16:33 | -41.58086 | -72.96574 | 4854 ft | 256 kts | 184° |
| 2026-04-21 16:33 | -41.59842 | -72.96781 | 4351 ft | 245 kts | 201° |
| 2026-04-21 16:33 | -41.61229 | -72.97900 | 3915 ft | 233 kts | 232° |
| 2026-04-21 16:33 | -41.61926 | -72.99740 | 3475 ft | 213 kts | 266° |
| 2026-04-21 16:34 | -41.61902 | -73.01615 | 3110 ft | 197 kts | 278° |
| 2026-04-21 16:34 | -41.61820 | -73.03439 | 3011 ft | 194 kts | 277° |
| 2026-04-21 16:34 | -41.61768 | -73.05181 | 2997 ft | 187 kts | 277° |
| 2026-04-21 16:34 | -41.61725 | -73.06881 | 2987 ft | 179 kts | 277° |
| 2026-04-21 16:35 | -41.61414 | -73.08436 | 2990 ft | 164 kts | 305° |
| 2026-04-21 16:35 | -41.60615 | -73.09422 | 2999 ft | 161 kts | 332° |
| 2026-04-21 16:35 | -41.59618 | -73.09827 | 2995 ft | 136 kts | 349° |
| 2026-04-21 16:35 | -41.58760 | -73.09899 | 2954 ft | 113 kts | 355° |
| 2026-04-21 16:36 | -41.57981 | -73.09887 | 2907 ft | 113 kts | 358° |
| 2026-04-21 16:36 | -41.57155 | -73.09841 | 2759 ft | 125 kts | 359° |
| 2026-04-21 16:36 | -41.56281 | -73.09811 | 2528 ft | 124 kts | 358° |
| 2026-04-21 16:36 | -41.55431 | -73.09825 | 2255 ft | 119 kts | 358° |
| 2026-04-21 16:37 | -41.54608 | -73.09801 | 2061 ft | 118 kts | 2° |
| 2026-04-21 16:37 | -41.53793 | -73.09737 | 1924 ft | 116 kts | 1° |
| 2026-04-21 16:37 | -41.52987 | -73.09711 | 1764 ft | 118 kts | 1° |
| 2026-04-21 16:37 | -41.52162 | -73.09698 | 1620 ft | 118 kts | 360° |
| 2026-04-21 16:38 | -41.51345 | -73.09690 | 1440 ft | 116 kts | 2° |
| 2026-04-21 16:38 | -41.50542 | -73.09657 | 1290 ft | 115 kts | 3° |
| 2026-04-21 16:38 | -41.49732 | -73.09633 | 1138 ft | 118 kts | 3° |
| 2026-04-21 16:38 | -41.48907 | -73.09599 | 960 ft | 119 kts | 2° |
| 2026-04-21 16:39 | -41.48065 | -73.09567 | 797 ft | 125 kts | 2° |
| 2026-04-21 16:39 | -41.47214 | -73.09531 | 662 ft | 122 kts | 2° |
| 2026-04-21 16:39 | -41.46360 | -73.09503 | 562 ft | 123 kts | 2° |
| 2026-04-21 16:39 | -41.45504 | -73.09464 | 419 ft | 120 kts | 3° |
| 2026-04-21 16:40 | -41.44683 | -73.09430 | 300 ft | 115 kts | 1° |
| 2026-04-21 16:40 | -41.44009 | -73.09407 | 288 ft | 59 kts | 2° |
| 2026-04-21 16:40 | -41.43827 | -73.09396 | 296 ft | 14 kts | 2° |
| 2026-04-21 16:40 | -41.43760 | -73.09394 | 297 ft | 5 kts | 354° |
| 2026-04-21 16:41 | -41.43727 | -73.09423 | 300 ft | 7 kts | 293° |
| 2026-04-21 16:41 | -41.43723 | -73.09505 | 299 ft | 6 kts | 271° |
| 2026-04-21 16:41 | -41.43723 | -73.09536 | 300 ft | 0 kts | 271° |
| 2026-04-21 16:44 | -41.43722 | -73.09553 | 300 ft | 3 kts | 271° |
| 2026-04-21 16:44 | -41.43716 | -73.09595 | 302 ft | 6 kts | 297° |
| 2026-04-21 16:44 | -41.43673 | -73.09610 | 301 ft | 8 kts | 3° |
| 2026-04-21 16:45 | -41.43611 | -73.09603 | 301 ft | 10 kts | 355° |
| 2026-04-21 16:45 | -41.43547 | -73.09604 | 303 ft | 0 kts | 1° |
| 2026-04-21 16:45 | -41.43530 | -73.09603 | 303 ft | 4 kts | 1° |
| 2026-04-21 16:45 | -41.43488 | -73.09602 | 303 ft | 8 kts | 1° |
| 2026-04-21 16:46 | -41.43423 | -73.09600 | 301 ft | 11 kts | 1° |
| 2026-04-21 16:46 | -41.43365 | -73.09598 | 302 ft | 7 kts | 1° |
| 2026-04-21 16:46 | -41.43351 | -73.09598 | 301 ft | 3 kts | 1° |
| 2026-04-21 16:46 | -41.43333 | -73.09617 | 302 ft | 4 kts | 288° |
| 2026-04-21 16:47 | -41.43331 | -73.09678 | 301 ft | 9 kts | 272° |
| 2026-04-21 16:47 | -41.43331 | -73.09714 | 301 ft | 2 kts | 272° |
| 2026-04-21 16:47 | -41.43330 | -73.09735 | 302 ft | 4 kts | 271° |
| 2026-04-21 16:47 | -41.43330 | -73.09748 | 302 ft | 0 kts | 271° |
| 2026-04-21 16:48 | -41.43330 | -73.09749 | 302 ft | 0 kts | 271° |